Time;durP1;ratioP1;P1;durP2;ratioP2;P2;SDS_P1;SDS_P2;PMS_P1;PMS_P2;Temp;Humidity;BMP_temperature;BMP_pressure;BME280_temperature;BME280_humidity;BME280_pressure;Samples;Min_cycle;Max_cycle;Signal;HPM_P1;HPM_P2
2020/12/15 00:01:25;;;;;;;28.15;20.25;;;5.10;1.00;;;;;;4983047;28;20292;-77
2020/12/15 00:03:51;;;;;;;22.25;18.67;;;5.00;1.00;;;;;;4952319;28;20220;-77
2020/12/15 00:06:18;;;;;;;24.75;21.13;;;5.00;1.00;;;;;;4984450;28;20240;-77
2020/12/15 00:08:45;;;;;;;28.17;22.65;;;5.00;1.00;;;;;;4966440;28;25484;-77
2020/12/15 00:11:18;;;;;;;27.02;18.92;;;5.00;1.00;;;;;;4983088;28;20223;-77
2020/12/15 00:13:44;;;;;;;20.20;17.48;;;5.00;1.00;;;;;;4958086;28;21040;-76
2020/12/15 00:16:11;;;;;;;27.10;19.50;;;4.90;1.00;;;;;;4979864;28;20346;-76
2020/12/15 00:18:37;;;;;;;22.80;19.90;;;4.90;1.00;;;;;;4957213;28;20298;-76
2020/12/15 00:21:03;;;;;;;23.30;17.95;;;4.90;1.00;;;;;;4979991;28;20227;-76
2020/12/15 00:23:30;;;;;;;20.85;18.67;;;4.90;1.00;;;;;;4962096;28;20255;-78
2020/12/15 00:25:57;;;;;;;26.45;20.33;;;5.00;1.00;;;;;;4979745;28;20252;-76
2020/12/15 00:28:23;;;;;;;25.10;21.30;;;5.00;1.00;;;;;;4957607;28;20243;-76
2020/12/15 00:30:49;;;;;;;21.27;17.13;;;5.00;1.00;;;;;;4983931;28;20283;-77
2020/12/15 00:33:15;;;;;;;26.40;21.45;;;4.90;1.00;;;;;;4963380;28;20235;-77
2020/12/15 00:35:42;;;;;;;26.13;21.17;;;5.00;1.00;;;;;;4978865;28;20252;-77
2020/12/15 00:38:08;;;;;;;28.20;22.75;;;5.00;1.00;;;;;;4959612;28;20240;-76
2020/12/15 00:40:35;;;;;;;26.67;21.50;;;5.00;1.00;;;;;;4986212;28;20360;-76
2020/12/15 00:43:01;;;;;;;23.73;18.88;;;5.00;1.00;;;;;;4995030;28;20228;-76
2020/12/15 00:45:27;;;;;;;20.80;18.00;;;5.00;1.00;;;;;;4977803;28;20244;-76
2020/12/15 00:47:54;;;;;;;22.67;19.35;;;5.00;1.00;;;;;;4994438;28;20331;-77
2020/12/15 00:50:20;;;;;;;26.27;19.55;;;5.00;1.00;;;;;;4964322;28;20251;-77
2020/12/15 00:52:46;;;;;;;23.27;19.35;;;5.00;1.00;;;;;;4983586;28;20287;-76
2020/12/15 00:55:12;;;;;;;21.95;18.40;;;5.00;1.00;;;;;;4961740;28;20323;-78
2020/12/15 00:57:39;;;;;;;21.52;17.63;;;5.00;1.00;;;;;;4982079;28;20672;-78
2020/12/15 01:00:08;;;;;;;21.67;17.88;;;4.90;1.00;;;;;;4954676;28;20278;-77
2020/12/15 01:02:37;;;;;;;21.75;17.85;;;4.90;1.00;;;;;;4986900;28;20224;-77
2020/12/15 01:05:04;;;;;;;18.88;16.42;;;4.90;1.00;;;;;;4959095;28;20793;-77
2020/12/15 01:07:30;;;;;;;22.20;18.05;;;4.90;1.00;;;;;;4984158;28;20699;-77
2020/12/15 01:09:57;;;;;;;25.27;17.33;;;4.90;1.00;;;;;;4956333;28;20315;-78
2020/12/15 01:12:24;;;;;;;19.48;16.92;;;4.90;1.00;;;;;;4988904;28;20279;-78
2020/12/15 01:14:51;;;;;;;24.67;18.83;;;4.90;1.00;;;;;;4977978;28;20362;-76
2020/12/15 01:17:17;;;;;;;19.83;16.52;;;4.90;1.00;;;;;;4989651;28;20340;-77
2020/12/15 01:19:43;;;;;;;17.42;15.18;;;4.90;1.00;;;;;;4967899;28;20296;-76
2020/12/15 01:22:11;;;;;;;19.85;17.30;;;4.90;1.00;;;;;;4984418;28;20319;-77
2020/12/15 01:24:37;;;;;;;21.23;17.58;;;4.90;1.00;;;;;;4983153;28;20228;-77
2020/12/15 01:27:03;;;;;;;18.70;16.65;;;4.90;1.00;;;;;;4964845;28;21065;-77
2020/12/15 01:29:29;;;;;;;22.70;16.45;;;4.80;1.00;;;;;;4985035;28;20254;-77
2020/12/15 01:32:00;;;;;;;19.48;15.50;;;4.90;1.00;;;;;;4958198;28;20822;-77
2020/12/15 01:34:26;;;;;;;20.98;18.55;;;4.90;1.00;;;;;;4984258;28;20334;-77
2020/12/15 01:36:52;;;;;;;21.77;17.10;;;4.90;1.00;;;;;;4967177;28;21768;-76
2020/12/15 01:39:19;;;;;;;19.35;17.00;;;4.90;1.00;;;;;;4987396;28;20731;-77
2020/12/15 01:41:45;;;;;;;18.35;16.25;;;4.90;1.00;;;;;;4956770;28;20228;-76
2020/12/15 01:44:12;;;;;;;18.40;16.10;;;4.90;1.00;;;;;;4978945;28;20232;-77
2020/12/15 01:46:38;;;;;;;20.63;17.45;;;4.90;1.00;;;;;;4961929;28;20228;-77
2020/12/15 01:49:06;;;;;;;21.52;17.65;;;4.90;1.00;;;;;;4979714;28;20834;-76
2020/12/15 01:51:32;;;;;;;19.45;16.52;;;4.90;1.00;;;;;;4961590;28;20252;-77
2020/12/15 01:53:59;;;;;;;19.15;16.13;;;4.90;1.00;;;;;;4982547;28;20238;-76
2020/12/15 01:56:25;;;;;;;19.75;16.88;;;4.90;1.00;;;;;;4965373;28;20317;-76
2020/12/15 01:58:54;;;;;;;19.48;17.33;;;4.90;1.00;;;;;;5006636;28;20259;-77
2020/12/15 02:01:21;;;;;;;18.42;15.93;;;4.90;1.00;;;;;;4967317;28;20283;-75
2020/12/15 02:03:47;;;;;;;20.75;16.40;;;4.90;1.00;;;;;;4996916;28;20228;-76
2020/12/15 02:06:14;;;;;;;21.75;17.60;;;4.90;1.00;;;;;;5001104;28;20236;-76
2020/12/15 02:08:42;;;;;;;26.42;19.90;;;5.00;1.00;;;;;;4968796;28;20760;-76
2020/12/15 02:11:09;;;;;;;18.25;16.27;;;4.90;1.00;;;;;;4992023;28;20223;-76
2020/12/15 02:13:36;;;;;;;18.60;15.35;;;5.00;1.00;;;;;;4968109;28;20220;-76
2020/12/15 02:16:03;;;;;;;21.33;17.23;;;5.00;1.00;;;;;;4986397;28;21686;-77
2020/12/15 02:18:29;;;;;;;19.05;16.70;;;5.00;1.00;;;;;;4973180;28;20231;-77
2020/12/15 02:20:56;;;;;;;19.98;17.00;;;5.00;1.00;;;;;;4994702;28;20310;-77
2020/12/15 02:23:23;;;;;;;18.48;15.68;;;5.10;1.00;;;;;;4963068;28;20334;-77
2020/12/15 02:25:49;;;;;;;18.95;16.67;;;5.10;1.00;;;;;;4986512;28;20234;-77
2020/12/15 02:28:15;;;;;;;18.20;15.93;;;5.10;1.00;;;;;;4965958;28;20231;-77
2020/12/15 02:30:42;;;;;;;18.95;16.25;;;5.10;1.00;;;;;;4984892;28;20236;-78
2020/12/15 02:33:08;;;;;;;19.33;16.25;;;5.10;1.00;;;;;;4960954;28;20235;-77
2020/12/15 02:35:34;;;;;;;18.42;16.42;;;5.10;1.00;;;;;;4983611;28;20748;-79
2020/12/15 02:38:00;;;;;;;18.63;16.63;;;5.00;1.00;;;;;;4965601;28;20235;-77
2020/12/15 02:40:27;;;;;;;17.95;16.00;;;5.00;1.00;;;;;;4984016;28;20299;-77
2020/12/15 02:42:54;;;;;;;16.38;14.05;;;5.00;1.00;;;;;;4965149;28;20306;-77
2020/12/15 02:45:20;;;;;;;18.20;16.27;;;5.00;1.00;;;;;;4983536;28;20734;-77
2020/12/15 02:47:47;;;;;;;18.80;15.38;;;5.00;1.00;;;;;;4982960;28;20349;-77
2020/12/15 02:50:17;;;;;;;18.80;16.77;;;5.10;1.00;;;;;;4971208;28;20231;-76
2020/12/15 02:52:43;;;;;;;17.63;15.75;;;5.00;1.00;;;;;;4992169;28;21201;-76
2020/12/15 02:55:10;;;;;;;17.83;15.35;;;4.90;1.00;;;;;;4967736;28;20220;-76
2020/12/15 02:57:37;;;;;;;18.42;16.05;;;4.90;1.00;;;;;;4987521;28;20670;-77
2020/12/15 03:00:06;;;;;;;19.00;16.05;;;4.90;1.00;;;;;;4961175;28;20247;-78
2020/12/15 03:02:32;;;;;;;16.80;15.05;;;4.80;1.00;;;;;;4983235;28;20281;-77
2020/12/15 03:04:59;;;;;;;21.05;17.30;;;4.80;1.00;;;;;;4957291;28;20384;-75
2020/12/15 03:07:25;;;;;;;20.35;16.48;;;4.80;1.00;;;;;;4981704;28;20234;-76
2020/12/15 03:09:51;;;;;;;19.23;15.20;;;4.80;1.00;;;;;;4962179;28;20224;-77
2020/12/15 03:12:19;;;;;;;18.38;16.48;;;4.80;1.00;;;;;;4979354;28;20232;-77
2020/12/15 03:14:47;;;;;;;18.27;15.90;;;4.80;1.00;;;;;;4968266;28;20726;-77
2020/12/15 03:17:14;;;;;;;19.88;16.40;;;4.90;1.00;;;;;;4972950;28;20228;-76
2020/12/15 03:19:40;;;;;;;17.33;15.35;;;4.90;1.00;;;;;;4968652;28;21745;-77
2020/12/15 03:22:06;;;;;;;19.67;16.98;;;4.90;1.00;;;;;;4986003;28;20235;-77
2020/12/15 03:24:32;;;;;;;18.52;15.68;;;4.90;1.00;;;;;;4969479;28;20279;-76
2020/12/15 03:26:59;;;;;;;18.88;15.90;;;4.90;1.00;;;;;;4984618;28;21054;-76
2020/12/15 03:29:25;;;;;;;20.02;16.00;;;4.80;1.00;;;;;;4988054;28;20232;-77
2020/12/15 03:31:52;;;;;;;21.42;17.80;;;4.80;1.00;;;;;;4965110;28;20421;-78
2020/12/15 03:34:18;;;;;;;20.55;16.58;;;4.70;1.00;;;;;;4986023;28;20234;-77
2020/12/15 03:36:44;;;;;;;21.88;17.20;;;4.70;1.00;;;;;;4964548;28;20315;-78
2020/12/15 03:39:11;;;;;;;24.73;18.92;;;4.70;1.00;;;;;;4979390;28;20370;-77
2020/12/15 03:41:37;;;;;;;21.08;16.92;;;4.70;1.00;;;;;;4972766;28;20310;-77
2020/12/15 03:44:03;;;;;;;21.20;17.55;;;4.70;1.00;;;;;;4994241;28;20306;-77
2020/12/15 03:46:29;;;;;;;21.50;18.50;;;4.70;1.00;;;;;;4977692;28;20727;-76
2020/12/15 03:48:57;;;;;;;21.42;17.00;;;4.70;1.00;;;;;;4994263;28;20224;-76
2020/12/15 03:51:23;;;;;;;20.13;17.83;;;4.70;1.00;;;;;;4969222;28;20267;-77
2020/12/15 03:53:49;;;;;;;33.78;19.40;;;4.70;1.00;;;;;;4978620;28;20235;-75
2020/12/15 03:56:16;;;;;;;22.52;17.70;;;4.60;1.00;;;;;;4960102;28;20224;-76
2020/12/15 03:58:43;;;;;;;22.00;18.48;;;4.60;1.00;;;;;;4984285;28;20290;-77
2020/12/15 04:01:09;;;;;;;22.48;17.63;;;4.60;1.00;;;;;;4967972;28;22656;-76
2020/12/15 04:03:35;;;;;;;20.92;18.00;;;4.70;1.00;;;;;;4995216;28;20230;-75
2020/12/15 04:06:03;;;;;;;21.40;17.98;;;4.60;1.00;;;;;;4978004;28;21146;-75
2020/12/15 04:08:29;;;;;;;22.42;18.30;;;4.60;1.00;;;;;;4976927;28;20336;-76
2020/12/15 04:10:56;;;;;;;21.08;18.13;;;4.60;1.00;;;;;;4986206;28;20690;-77
2020/12/15 04:13:22;;;;;;;21.20;18.05;;;4.60;1.00;;;;;;4966014;28;20224;-77
2020/12/15 04:15:48;;;;;;;22.40;19.85;;;4.60;1.00;;;;;;4977479;28;20331;-77
2020/12/15 04:18:14;;;;;;;20.08;17.23;;;4.60;1.00;;;;;;4961874;28;20345;-76
2020/12/15 04:20:41;;;;;;;23.88;18.10;;;4.60;1.00;;;;;;4990503;28;20223;-76
2020/12/15 04:23:08;;;;;;;23.40;18.02;;;4.50;1.00;;;;;;4962777;28;20231;-76
2020/12/15 04:25:36;;;;;;;23.00;17.50;;;4.40;1.00;;;;;;4984980;28;20697;-76
2020/12/15 04:28:02;;;;;;;22.85;18.95;;;4.40;1.00;;;;;;4958874;28;20235;-76
2020/12/15 04:30:28;;;;;;;22.45;18.60;;;4.40;1.00;;;;;;4986248;28;20236;-77
2020/12/15 04:32:54;;;;;;;21.80;18.10;;;4.30;1.00;;;;;;4962143;28;20219;-76
2020/12/15 04:35:21;;;;;;;24.58;19.70;;;4.30;1.00;;;;;;4986533;28;20239;-76
2020/12/15 04:37:48;;;;;;;23.95;21.45;;;4.30;1.00;;;;;;4970083;28;20243;-77
2020/12/15 04:40:15;;;;;;;22.05;19.63;;;4.40;1.00;;;;;;4979368;28;20315;-77
2020/12/15 04:42:42;;;;;;;24.02;19.30;;;4.40;1.00;;;;;;4967419;28;20725;-76
2020/12/15 04:45:08;;;;;;;25.33;20.67;;;4.30;1.00;;;;;;4988471;28;20243;-77
2020/12/15 04:47:42;;;;;;;25.25;18.75;;;4.30;1.00;;;;;;4989415;28;20232;-77
2020/12/15 04:50:10;;;;;;;21.27;18.73;;;4.20;1.00;;;;;;4977474;28;20857;-77
2020/12/15 04:52:48;;;;;;;22.70;20.15;;;4.20;1.00;;;;;;4984643;28;20227;-76
2020/12/15 04:55:16;;;;;;;25.73;19.85;;;4.20;1.00;;;;;;4974731;28;20642;-76
2020/12/15 04:57:46;;;;;;;23.67;20.05;;;4.20;1.00;;;;;;4984717;28;20597;-77
2020/12/15 05:00:14;;;;;;;24.58;20.13;;;4.20;1.00;;;;;;4965378;28;20720;-76
2020/12/15 05:02:42;;;;;;;26.02;20.35;;;4.10;1.00;;;;;;4986832;28;20833;-77
2020/12/15 05:05:08;;;;;;;24.05;20.60;;;4.10;1.00;;;;;;4963524;28;20282;-76
2020/12/15 05:07:39;;;;;;;27.27;19.60;;;4.10;1.00;;;;;;4991629;28;20227;-75
2020/12/15 05:10:05;;;;;;;25.23;20.25;;;4.10;1.00;;;;;;4970443;28;21100;-78
2020/12/15 05:12:32;;;;;;;24.52;19.40;;;4.10;1.00;;;;;;4989599;28;20717;-78
2020/12/15 05:14:59;;;;;;;27.30;20.60;;;4.10;1.00;;;;;;4967629;28;20351;-76
2020/12/15 05:17:25;;;;;;;25.48;20.35;;;4.10;1.00;;;;;;4985952;28;20508;-76
2020/12/15 05:19:51;;;;;;;26.77;19.85;;;4.10;1.00;;;;;;4963013;28;20227;-76
2020/12/15 05:22:18;;;;;;;24.92;20.23;;;4.10;1.00;;;;;;4983622;28;20234;-75
2020/12/15 05:24:48;;;;;;;23.00;20.10;;;4.00;1.00;;;;;;4965031;28;20236;-76
2020/12/15 05:27:29;;;;;;;26.45;20.20;;;4.00;1.00;;;;;;4987319;28;20219;-76
2020/12/15 05:30:06;;;;;;;25.98;20.85;;;4.00;1.00;;;;;;4963367;28;20211;-77
2020/12/15 05:32:32;;;;;;;25.15;21.80;;;4.00;1.00;;;;;;4982976;28;20223;-77
2020/12/15 05:35:06;;;;;;;26.25;21.10;;;4.00;1.00;;;;;;4971240;28;21925;-76
2020/12/15 05:37:32;;;;;;;27.90;21.63;;;4.00;1.00;;;;;;4984349;28;20243;-77
2020/12/15 05:40:00;;;;;;;28.55;22.70;;;4.00;1.00;;;;;;4967901;28;20247;-77
2020/12/15 05:42:27;;;;;;;33.22;24.55;;;4.00;1.00;;;;;;4988922;28;20223;-77
2020/12/15 05:44:56;;;;;;;26.95;19.92;;;4.00;1.00;;;;;;4970595;28;20219;-75
2020/12/15 05:47:24;;;;;;;28.73;23.08;;;4.00;1.00;;;;;;4982297;28;20215;-77
2020/12/15 05:49:52;;;;;;;27.55;20.88;;;4.00;1.00;;;;;;4984127;28;20224;-77
2020/12/15 05:52:25;;;;;;;24.20;20.90;;;4.10;1.00;;;;;;4967115;28;20656;-76
2020/12/15 05:54:51;;;;;;;30.67;23.50;;;4.10;1.00;;;;;;4980261;28;20298;-76
2020/12/15 05:57:22;;;;;;;26.98;22.00;;;4.10;1.00;;;;;;4973299;28;20227;-76
2020/12/15 05:59:49;;;;;;;30.08;23.50;;;4.10;1.00;;;;;;4982542;28;20940;-76
2020/12/15 06:02:15;;;;;;;29.42;23.58;;;4.20;1.00;;;;;;4961771;28;20251;-76
2020/12/15 06:04:42;;;;;;;28.15;21.27;;;4.20;1.00;;;;;;4989680;28;20274;-76
2020/12/15 06:07:09;;;;;;;26.88;22.00;;;4.20;1.00;;;;;;4969796;28;20769;-77
2020/12/15 06:09:37;;;;;;;30.33;22.17;;;4.20;1.00;;;;;;4990758;28;20237;-76
2020/12/15 06:12:05;;;;;;;30.60;22.00;;;4.30;1.00;;;;;;4971872;28;20238;-77
2020/12/15 06:14:31;;;;;;;28.48;21.50;;;4.30;1.00;;;;;;4997306;28;20250;-76
2020/12/15 06:16:58;;;;;;;26.33;20.85;;;4.40;1.00;;;;;;4975304;28;20220;-76
2020/12/15 06:19:24;;;;;;;26.60;21.25;;;4.40;1.00;;;;;;4994964;28;20219;-77
2020/12/15 06:21:53;;;;;;;28.77;21.70;;;4.40;1.00;;;;;;4965139;28;21560;-77
2020/12/15 06:24:25;;;;;;;27.42;20.52;;;4.40;1.00;;;;;;4994841;28;20235;-74
2020/12/15 06:26:59;;;;;;;32.60;24.52;;;4.40;1.00;;;;;;4976127;28;20260;-74
2020/12/15 06:29:30;;;;;;;27.27;22.02;;;4.50;1.00;;;;;;4990719;28;20220;-76
2020/12/15 06:31:56;;;;;;;23.95;20.90;;;4.40;1.00;;;;;;4987266;28;20287;-76
2020/12/15 06:34:27;;;;;;;28.05;21.95;;;4.40;1.00;;;;;;4959336;28;20319;-75
2020/12/15 06:36:55;;;;;;;27.92;21.13;;;4.50;1.00;;;;;;4990810;28;20223;-76
2020/12/15 06:39:23;;;;;;;24.73;22.08;;;4.40;1.00;;;;;;4969776;28;20254;-75
2020/12/15 06:42:01;;;;;;;27.05;21.00;;;4.40;1.00;;;;;;4990251;28;20710;-76
2020/12/15 06:44:30;;;;;;;26.13;21.15;;;4.50;1.00;;;;;;4961653;28;21002;-75
2020/12/15 06:46:57;;;;;;;31.25;23.08;;;4.50;1.00;;;;;;4997065;28;20238;-76
2020/12/15 06:49:34;;;;;;;29.48;21.77;;;4.50;1.00;;;;;;4972883;28;20294;-74
2020/12/15 06:52:03;;;;;;;27.52;22.05;;;4.60;1.00;;;;;;4992275;28;20227;-75
2020/12/15 06:54:31;;;;;;;29.05;21.90;;;4.60;1.00;;;;;;4963405;28;20228;-76
2020/12/15 06:57:02;;;;;;;23.90;20.60;;;4.60;1.00;;;;;;4990565;28;20275;-75
2020/12/15 06:59:37;;;;;;;27.92;21.30;;;4.70;1.00;;;;;;4966367;28;20244;-77
2020/12/15 07:02:09;;;;;;;30.48;25.35;;;4.60;1.00;;;;;;4986345;28;20237;-75
2020/12/15 07:04:46;;;;;;;30.55;22.10;;;4.60;1.00;;;;;;4963998;28;20223;-75
2020/12/15 07:07:15;;;;;;;31.40;21.77;;;4.60;1.00;;;;;;4990867;28;21036;-74
2020/12/15 07:09:42;;;;;;;28.73;20.77;;;4.60;1.00;;;;;;4962921;28;20228;-73
2020/12/15 07:12:15;;;;;;;27.20;20.92;;;4.60;1.00;;;;;;4979351;28;20243;-74
2020/12/15 07:14:45;;;;;;;29.80;22.70;;;4.60;1.00;;;;;;4965025;28;20327;-74
2020/12/15 07:17:13;;;;;;;31.10;22.52;;;4.60;1.00;;;;;;4980135;28;20215;-74
2020/12/15 07:19:40;;;;;;;27.45;22.25;;;4.50;1.00;;;;;;4958296;28;20244;-74
2020/12/15 07:22:07;;;;;;;30.10;22.05;;;4.60;1.00;;;;;;4979155;28;20255;-75
2020/12/15 07:27:16;;;;;;;28.60;21.95;;;4.60;1.00;;;;;;4973873;28;20255;-74
2020/12/15 07:30:21;;;;;;;31.15;24.13;;;4.60;1.00;;;;;;4984826;28;20231;-73
2020/12/15 07:32:48;;;;;;;24.30;21.08;;;4.60;1.00;;;;;;4976295;28;20231;-75
2020/12/15 07:35:18;;;;;;;29.75;22.15;;;4.50;1.00;;;;;;4960488;28;20302;-73
2020/12/15 07:37:45;;;;;;;26.45;20.88;;;4.60;1.00;;;;;;4978474;28;20241;-74
2020/12/15 07:40:14;;;;;;;26.65;21.17;;;4.60;1.00;;;;;;4971787;28;20235;-75
2020/12/15 07:42:41;;;;;;;30.58;21.25;;;4.50;1.00;;;;;;4981787;28;20326;-75
2020/12/15 07:45:09;;;;;;;29.80;22.90;;;4.60;1.00;;;;;;4980115;28;20235;-75
2020/12/15 07:47:40;;;;;;;32.05;21.90;;;4.50;1.00;;;;;;4960064;28;20846;-75
2020/12/15 07:50:08;;;;;;;28.08;22.60;;;4.60;1.00;;;;;;4984088;28;21060;-75
2020/12/15 07:52:35;;;;;;;26.50;21.77;;;4.60;1.00;;;;;;4959556;28;20228;-75
2020/12/15 07:55:07;;;;;;;29.63;22.17;;;4.60;1.00;;;;;;4988340;28;20223;-75
2020/12/15 07:57:36;;;;;;;27.02;20.77;;;4.60;1.00;;;;;;4961787;28;20238;-76
2020/12/15 08:00:12;;;;;;;28.05;22.13;;;4.60;1.00;;;;;;4981989;28;20223;-75
2020/12/15 08:02:39;;;;;;;26.85;21.77;;;4.60;1.00;;;;;;4963295;28;20238;-75
2020/12/15 08:05:11;;;;;;;41.63;23.85;;;4.70;1.00;;;;;;4981066;28;20717;-75
2020/12/15 08:07:46;;;;;;;26.92;21.52;;;4.70;1.00;;;;;;4962998;28;20805;-74
2020/12/15 08:10:12;;;;;;;27.92;21.85;;;4.80;1.00;;;;;;4987327;28;20237;-74
2020/12/15 08:12:41;;;;;;;32.03;23.27;;;4.80;1.00;;;;;;4967066;28;20306;-75
2020/12/15 08:15:08;;;;;;;27.20;21.35;;;4.80;1.00;;;;;;4985995;28;20235;-74
2020/12/15 08:17:34;;;;;;;28.67;23.02;;;4.90;1.00;;;;;;4981429;28;20746;-76
2020/12/15 08:20:03;;;;;;;25.83;21.40;;;4.90;1.00;;;;;;4989702;28;20221;-74
2020/12/15 08:22:31;;;;;;;25.92;20.85;;;4.80;1.00;;;;;;4978493;28;20240;-75
2020/12/15 08:24:58;;;;;;;28.00;22.58;;;4.90;1.00;;;;;;4997192;28;20230;-75
2020/12/15 08:27:25;;;;;;;34.88;22.70;;;4.90;1.00;;;;;;4976124;28;20266;-76
2020/12/15 08:29:53;;;;;;;29.23;21.52;;;5.00;1.00;;;;;;4990804;28;20232;-74
2020/12/15 08:32:27;;;;;;;29.17;22.13;;;5.10;1.00;;;;;;4965837;28;20311;-74
2020/12/15 08:34:58;;;;;;;29.13;24.27;;;5.10;1.00;;;;;;4984306;28;20391;-75
2020/12/15 08:37:25;;;;;;;28.35;22.35;;;5.00;1.00;;;;;;4975979;28;21540;-73
2020/12/15 08:39:53;;;;;;;26.25;21.23;;;5.10;1.00;;;;;;4981106;28;20761;-75
2020/12/15 08:42:20;;;;;;;28.48;21.83;;;5.10;1.00;;;;;;4984652;28;20258;-74
2020/12/15 08:44:46;;;;;;;27.25;20.42;;;5.10;1.00;;;;;;4962605;28;20238;-76
2020/12/15 08:47:17;;;;;;;24.25;20.15;;;5.20;1.00;;;;;;4982877;28;20671;-74
2020/12/15 08:49:45;;;;;;;23.38;20.38;;;5.20;1.00;;;;;;4969449;28;20734;-75
2020/12/15 08:52:11;;;;;;;25.77;21.50;;;5.30;1.00;;;;;;4987254;28;21001;-74
2020/12/15 08:54:41;;;;;;;22.35;19.92;;;5.30;1.00;;;;;;4969822;28;20246;-76
2020/12/15 08:57:13;;;;;;;24.83;20.45;;;5.30;1.00;;;;;;4984042;28;20306;-75
2020/12/15 08:59:39;;;;;;;27.25;20.52;;;5.30;1.00;;;;;;4965612;28;21085;-76
2020/12/15 09:02:05;;;;;;;28.23;21.88;;;5.40;1.00;;;;;;4986678;28;20625;-75
2020/12/15 09:04:32;;;;;;;26.15;21.48;;;5.50;1.00;;;;;;4961770;28;20249;-75
2020/12/15 09:06:58;;;;;;;30.83;23.67;;;5.60;1.00;;;;;;4985036;28;20311;-74
2020/12/15 09:09:30;;;;;;;24.50;20.33;;;5.60;1.00;;;;;;4965759;28;20350;-75
2020/12/15 09:11:57;;;;;;;27.35;22.67;;;5.70;1.00;;;;;;4983590;28;20231;-76
2020/12/15 09:14:24;;;;;;;31.63;22.55;;;5.80;1.00;;;;;;4963673;28;20314;-76
2020/12/15 09:16:50;;;;;;;24.23;19.95;;;5.80;1.00;;;;;;4983325;28;20255;-76
2020/12/15 09:19:18;;;;;;;26.30;21.90;;;5.90;1.00;;;;;;4964668;28;20240;-74
2020/12/15 09:21:57;;;;;;;24.60;21.08;;;6.00;1.00;;;;;;4988821;28;20310;-75
2020/12/15 09:24:23;;;;;;;25.55;20.95;;;6.10;1.00;;;;;;4976093;28;20244;-76
2020/12/15 09:26:50;;;;;;;28.92;22.45;;;6.00;1.00;;;;;;4983804;28;21526;-76
2020/12/15 09:29:16;;;;;;;25.05;20.60;;;6.10;1.00;;;;;;4986045;28;20236;-76
2020/12/15 09:31:43;;;;;;;25.65;21.33;;;6.10;1.00;;;;;;4970372;28;21009;-76
2020/12/15 09:34:09;;;;;;;27.90;23.15;;;6.10;1.00;;;;;;4993818;28;20272;-77
2020/12/15 09:36:36;;;;;;;23.40;19.75;;;6.20;1.00;;;;;;4968913;28;20236;-76
2020/12/15 09:39:04;;;;;;;27.17;20.52;;;6.20;1.00;;;;;;4995401;28;20270;-76
2020/12/15 09:41:34;;;;;;;26.33;21.10;;;6.30;1.00;;;;;;4986397;28;20224;-75
2020/12/15 09:44:00;;;;;;;27.70;21.90;;;6.30;1.00;;;;;;4997635;28;20583;-75
2020/12/15 09:46:27;;;;;;;24.15;19.65;;;6.40;1.00;;;;;;4977003;28;20276;-76
2020/12/15 09:48:53;;;;;;;23.25;19.13;;;6.50;1.00;;;;;;5000570;28;20220;-76
2020/12/15 09:51:19;;;;;;;24.05;21.40;;;6.50;1.00;;;;;;4962615;28;20286;-77
2020/12/15 09:53:45;;;;;;;26.30;20.75;;;6.50;1.00;;;;;;4995802;28;20216;-76
2020/12/15 09:56:15;;;;;;;24.10;18.63;;;6.60;1.00;;;;;;4961053;28;20232;-76
2020/12/15 09:58:42;;;;;;;23.10;18.65;;;6.70;1.00;;;;;;4987612;28;20281;-77
2020/12/15 10:01:08;;;;;;;25.52;21.00;;;6.80;1.00;;;;;;4982651;28;20227;-76
2020/12/15 10:03:34;;;;;;;27.02;20.95;;;6.80;1.00;;;;;;4971135;28;20227;-77
2020/12/15 10:06:00;;;;;;;25.42;20.52;;;6.70;1.00;;;;;;4986361;28;20246;-76
2020/12/15 10:08:26;;;;;;;26.42;21.92;;;6.70;1.00;;;;;;4965470;28;20953;-76
2020/12/15 10:10:53;;;;;;;28.15;21.85;;;6.70;1.00;;;;;;4983955;28;20647;-76
2020/12/15 10:13:20;;;;;;;25.02;20.20;;;6.70;1.00;;;;;;4964522;28;20267;-77
2020/12/15 10:15:46;;;;;;;25.38;22.20;;;6.70;1.00;;;;;;4978056;28;20274;-76
2020/12/15 10:18:13;;;;;;;23.67;20.00;;;6.60;1.00;;;;;;4964106;28;20771;-75
2020/12/15 10:20:39;;;;;;;23.58;20.05;;;6.70;1.00;;;;;;4989937;28;21150;-76
2020/12/15 10:23:05;;;;;;;25.02;20.13;;;6.70;1.00;;;;;;4962306;28;20303;-75
2020/12/15 10:25:32;;;;;;;26.58;22.25;;;6.70;1.00;;;;;;4989113;28;20236;-75
2020/12/15 10:27:58;;;;;;;28.55;22.73;;;6.80;1.00;;;;;;4965129;28;20989;-76
2020/12/15 10:30:25;;;;;;;23.15;20.30;;;6.80;1.00;;;;;;4986448;28;20364;-76
2020/12/15 10:32:52;;;;;;;27.15;21.60;;;6.80;1.00;;;;;;4960696;28;21465;-75
2020/12/15 10:35:19;;;;;;;22.88;19.70;;;6.70;1.00;;;;;;4993752;28;20231;-77
2020/12/15 10:37:45;;;;;;;25.45;22.45;;;6.70;1.00;;;;;;4969486;28;20252;-77
2020/12/15 10:40:11;;;;;;;27.95;23.30;;;6.70;1.00;;;;;;4989299;28;21106;-76
2020/12/15 10:42:38;;;;;;;28.08;23.38;;;6.70;1.00;;;;;;4996038;28;20261;-76
2020/12/15 10:45:07;;;;;;;25.17;19.77;;;6.70;1.00;;;;;;4979050;28;20220;-75
2020/12/15 10:47:34;;;;;;;27.75;22.15;;;6.70;1.00;;;;;;4997128;28;20247;-75
2020/12/15 10:50:00;;;;;;;25.10;20.48;;;6.70;1.00;;;;;;4974999;28;20897;-75
2020/12/15 10:52:26;;;;;;;26.25;21.48;;;6.80;1.00;;;;;;4999241;28;20228;-76
2020/12/15 10:54:53;;;;;;;25.52;21.77;;;6.80;1.00;;;;;;4968051;28;20260;-77
2020/12/15 10:57:19;;;;;;;23.75;21.17;;;6.90;1.00;;;;;;4989723;28;20363;-76
2020/12/15 10:59:46;;;;;;;24.67;19.65;;;6.90;1.00;;;;;;4953999;28;20782;-76
2020/12/15 11:02:13;;;;;;;24.88;20.17;;;7.00;1.00;;;;;;4986745;28;20263;-76
2020/12/15 11:04:40;;;;;;;26.27;22.02;;;7.00;1.00;;;;;;4957592;28;20740;-76
2020/12/15 11:07:06;;;;;;;27.42;21.58;;;7.00;1.00;;;;;;4986218;28;20227;-74
2020/12/15 11:09:32;;;;;;;27.42;20.27;;;7.10;1.00;;;;;;4964567;28;20287;-75
2020/12/15 11:11:59;;;;;;;22.40;19.85;;;7.00;1.00;;;;;;4983709;28;20220;-75
2020/12/15 11:14:25;;;;;;;23.00;20.50;;;7.00;1.00;;;;;;4961371;28;20224;-75
2020/12/15 11:16:51;;;;;;;22.52;18.75;;;7.00;1.00;;;;;;4982217;28;20255;-77
2020/12/15 11:19:18;;;;;;;23.00;19.33;;;7.00;1.00;;;;;;4963998;28;21514;-75
2020/12/15 11:21:47;;;;;;;23.25;20.33;;;7.00;1.00;;;;;;4989216;28;20266;-74
2020/12/15 11:24:13;;;;;;;20.67;18.40;;;7.00;1.00;;;;;;4990548;28;20286;-75
2020/12/15 11:26:39;;;;;;;21.95;18.92;;;7.10;1.00;;;;;;4962102;28;20235;-75
2020/12/15 11:29:05;;;;;;;24.58;20.95;;;7.10;1.00;;;;;;4984068;28;20267;-75
2020/12/15 11:31:31;;;;;;;24.67;20.48;;;7.20;1.00;;;;;;4959608;28;20363;-74
2020/12/15 11:33:58;;;;;;;23.75;20.70;;;7.20;1.00;;;;;;4988978;28;20223;-74
2020/12/15 11:36:26;;;;;;;23.15;18.67;;;7.30;1.00;;;;;;4953332;28;20224;-73
2020/12/15 11:38:53;;;;;;;30.83;21.30;;;7.20;1.00;;;;;;4983400;28;20322;-74
2020/12/15 11:41:19;;;;;;;24.38;20.73;;;7.20;1.00;;;;;;4946488;28;20230;-74
2020/12/15 11:43:45;;;;;;;23.23;19.38;;;7.20;1.00;;;;;;4985275;28;20318;-73
2020/12/15 11:46:12;;;;;;;21.60;19.38;;;7.20;1.00;;;;;;4960450;28;20958;-73
2020/12/15 11:48:38;;;;;;;22.67;20.25;;;7.20;1.00;;;;;;4984497;28;20447;-73
2020/12/15 11:51:04;;;;;;;20.95;18.13;;;7.30;1.00;;;;;;4964508;28;20650;-73
2020/12/15 11:53:30;;;;;;;21.95;19.50;;;7.30;1.00;;;;;;4981375;28;21231;-74
2020/12/15 11:55:57;;;;;;;23.40;19.00;;;7.40;1.00;;;;;;4963751;28;20243;-74
2020/12/15 11:58:26;;;;;;;23.13;19.73;;;7.60;1.00;;;;;;4979435;28;20333;-73
2020/12/15 12:00:53;;;;;;;22.50;18.23;;;7.70;1.00;;;;;;4978586;28;20318;-73
2020/12/15 12:03:19;;;;;;;23.63;19.25;;;7.80;1.00;;;;;;4984149;28;20223;-77
2020/12/15 12:05:45;;;;;;;22.83;19.45;;;8.00;1.00;;;;;;4987690;28;20286;-73
2020/12/15 12:08:11;;;;;;;29.70;23.42;;;8.10;1.00;;;;;;4965728;28;20243;-74
2020/12/15 12:10:38;;;;;;;20.95;18.10;;;8.30;1.00;;;;;;4987556;28;20230;-74
2020/12/15 12:13:05;;;;;;;21.83;18.27;;;8.50;1.00;;;;;;4964891;28;20267;-74
2020/12/15 12:15:31;;;;;;;23.92;18.83;;;8.70;1.00;;;;;;4985779;28;20291;-75
2020/12/15 12:17:57;;;;;;;20.63;17.38;;;8.80;1.00;;;;;;4958439;28;20290;-73
2020/12/15 12:20:24;;;;;;;23.88;19.70;;;9.00;1.00;;;;;;4987107;28;20224;-74
2020/12/15 12:22:50;;;;;;;21.70;18.52;;;9.10;1.00;;;;;;4972298;28;20226;-74
2020/12/15 12:25:16;;;;;;;20.40;17.80;;;9.20;1.00;;;;;;4994867;28;20231;-74
2020/12/15 12:27:42;;;;;;;22.38;19.17;;;9.20;1.00;;;;;;4971058;28;20430;-73
2020/12/15 12:30:09;;;;;;;21.50;19.20;;;9.00;1.00;;;;;;4983137;28;20334;-74
2020/12/15 12:32:36;;;;;;;19.77;17.27;;;8.80;1.00;;;;;;4969524;28;20223;-74
2020/12/15 12:35:02;;;;;;;24.23;18.80;;;8.70;1.00;;;;;;4977156;28;20287;-74
2020/12/15 12:37:29;;;;;;;23.95;17.58;;;8.60;1.00;;;;;;4983137;28;20705;-74
2020/12/15 12:39:55;;;;;;;20.88;16.80;;;8.60;1.00;;;;;;4969314;28;20246;-72
2020/12/15 12:42:21;;;;;;;20.88;17.58;;;8.60;1.00;;;;;;4982280;28;20259;-74
2020/12/15 12:44:47;;;;;;;19.77;17.25;;;8.60;1.00;;;;;;4969305;28;20243;-73
2020/12/15 12:47:14;;;;;;;24.38;17.75;;;8.50;1.00;;;;;;4985455;28;20299;-73
2020/12/15 12:49:40;;;;;;;18.45;16.42;;;8.60;1.00;;;;;;4967090;28;20275;-75
2020/12/15 12:52:06;;;;;;;20.50;17.83;;;8.70;1.00;;;;;;4982379;28;20231;-76